createdAt,value
2019-04-23T00:03:16.912Z,952.13
2019-04-23T00:08:17.476Z,737.50
2019-04-23T00:13:30.462Z,906.77
2019-04-23T00:18:36.924Z,785.30
2019-04-23T00:23:46.359Z,730.10
2019-04-23T00:28:42.175Z,781.50
2019-04-23T00:33:44.842Z,583.83
2019-04-23T00:38:50.078Z,762.70
2019-04-23T00:49:15.616Z,704.93
2019-04-23T00:54:12.280Z,679.70
2019-04-23T00:59:12.442Z,718.03
2019-04-23T01:04:18.575Z,818.63
2019-04-23T01:09:29.612Z,755.43
2019-04-23T01:14:34.457Z,643.07
2019-04-23T01:19:52.947Z,885.03
2019-04-23T01:24:44.101Z,494.83
2019-04-23T01:36:01.026Z,547.53
2019-04-23T01:40:28.404Z,741.40
2019-04-23T01:45:35.920Z,999.90
2019-04-23T01:50:46.425Z,999.90
2019-04-23T02:00:49.440Z,731.70
2019-04-23T02:05:58.875Z,811.07
2019-04-23T02:16:04.650Z,999.90
2019-04-23T02:21:11.833Z,999.90
2019-04-23T02:26:26.203Z,526.90
2019-04-23T02:36:40.557Z,999.90
2019-04-23T02:46:56.806Z,580.87
2019-04-23T02:56:57.304Z,999.90
2019-04-23T03:02:28.373Z,914.13
2019-04-23T03:07:14.164Z,905.27
2019-04-23T03:12:24.956Z,970.20
2019-04-23T03:17:33.053Z,945.40
2019-04-23T03:23:13.195Z,999.90
2019-04-23T03:28:23.228Z,999.90
2019-04-23T03:38:41.738Z,963.10
2019-04-23T03:43:33.682Z,999.90
2019-04-23T03:58:47.860Z,994.50
2019-04-23T04:09:11.795Z,999.90
2019-04-23T04:19:18.332Z,999.90
2019-04-23T04:24:37.330Z,671.17
2019-04-23T04:29:37.538Z,647.10
2019-04-23T04:35:05.557Z,376.50
2019-04-23T04:39:43.160Z,334.57
2019-04-23T04:49:55.778Z,196.80
2019-04-23T04:54:55.871Z,59.47
2019-04-23T05:00:21.567Z,355.07
2019-04-23T05:05:20.678Z,31.77
2019-04-23T05:11:28.840Z,142.60
2019-04-23T05:15:28.356Z,150.77
2019-04-23T05:25:25.487Z,591.93
2019-04-23T05:30:40.691Z,197.27
2019-04-23T05:36:04.567Z,34.30
2019-04-23T05:40:53.619Z,30.63
2019-04-23T05:45:46.735Z,102.83
2019-04-23T05:51:06.022Z,67.27
2019-04-23T05:56:01.541Z,119.83
2019-04-23T06:17:03.864Z,180.00
2019-04-23T06:27:01.721Z,178.13
2019-04-23T06:31:58.529Z,363.20
2019-04-23T06:37:09.752Z,196.50
2019-04-23T06:42:13.524Z,248.40
2019-04-23T06:47:21.943Z,163.17
2019-04-23T06:52:21.575Z,301.13
2019-04-23T06:57:26.970Z,617.40
2019-04-23T07:02:38.796Z,242.47
2019-04-23T07:17:54.083Z,281.50
2019-04-23T07:23:15.727Z,337.13
2019-04-23T07:28:14.942Z,44.67
2019-04-23T07:33:18.864Z,667.60
2019-04-23T07:38:40.663Z,151.70
2019-04-23T07:43:54.435Z,526.90
2019-04-23T07:48:57.963Z,563.03
2019-04-23T07:54:08.091Z,605.20
2019-04-23T07:59:16.054Z,431.80
2019-04-23T08:04:16.881Z,570.87
2019-04-23T08:09:24.347Z,457.73
2019-04-23T08:14:36.086Z,53.20
2019-04-23T08:19:47.876Z,416.13
2019-04-23T08:25:03.304Z,420.10
2019-04-23T08:29:56.069Z,389.63
2019-04-23T08:40:06.723Z,496.27
2019-04-23T08:50:35.437Z,71.83
2019-04-23T08:55:39.956Z,53.63
2019-04-23T09:05:57.696Z,364.40
2019-04-23T09:11:04.775Z,368.37
2019-04-23T09:16:05.180Z,289.07
2019-04-23T09:21:08.996Z,484.53
2019-04-23T09:26:08.286Z,441.73
2019-04-23T09:36:40.514Z,55.77
2019-04-23T09:42:16.199Z,381.93
2019-04-23T09:47:42.019Z,245.00
2019-04-23T09:52:48.811Z,153.70
2019-04-23T09:57:51.574Z,359.20
2019-04-23T10:02:41.218Z,90.17
2019-04-23T10:07:40.576Z,216.93
2019-04-23T10:12:35.733Z,167.20
2019-04-23T10:17:40.262Z,100.10
2019-04-23T10:22:44.319Z,295.00
2019-04-23T10:27:55.045Z,308.63
2019-04-23T10:32:53.802Z,574.90
2019-04-23T10:38:03.871Z,159.70
2019-04-23T10:43:03.903Z,163.20
2019-04-23T10:49:00.712Z,77.77
2019-04-23T10:54:16.534Z,96.10
2019-04-23T10:59:12.002Z,85.40
2019-04-23T11:04:34.237Z,442.10
2019-04-23T11:14:33.839Z,220.20
2019-04-23T11:19:45.842Z,225.80
2019-04-23T11:24:41.902Z,214.03
2019-04-23T11:45:10.558Z,171.90
2019-04-23T11:50:12.308Z,160.90
2019-04-23T11:55:26.182Z,263.50
2019-04-23T12:06:04.159Z,217.60
2019-04-23T12:11:15.210Z,425.30
2019-04-23T12:16:00.536Z,74.00
2019-04-23T12:21:22.608Z,226.03
2019-04-23T12:26:34.171Z,383.90
2019-04-23T12:31:34.170Z,384.37
2019-04-23T12:41:54.678Z,204.07
2019-04-23T12:47:04.821Z,350.53
2019-04-23T12:52:14.296Z,375.93
2019-04-23T12:57:18.579Z,264.80
2019-04-23T13:02:27.441Z,419.83
2019-04-23T13:07:25.801Z,414.73
2019-04-23T13:12:36.185Z,260.50
2019-04-23T13:17:50.563Z,561.93
2019-04-23T13:22:52.929Z,379.83
2019-04-23T13:27:53.513Z,209.70
2019-04-23T13:32:58.941Z,61.87
2019-04-23T13:38:08.139Z,311.73
2019-04-23T13:53:28.791Z,431.40
2019-04-23T13:58:34.475Z,56.53
2019-04-23T14:03:33.697Z,224.13
2019-04-23T14:13:44.083Z,79.50
2019-04-23T14:24:03.285Z,766.27
2019-04-23T14:28:51.239Z,810.37
2019-04-23T14:34:25.427Z,524.63
2019-04-23T14:39:05.767Z,427.50
2019-04-23T14:44:18.580Z,310.13
2019-04-23T14:49:36.082Z,694.13
2019-04-23T14:55:11.441Z,801.03
2019-04-23T14:59:46.938Z,582.60
2019-04-23T15:04:54.489Z,696.33
2019-04-23T15:10:04.578Z,812.17
2019-04-23T15:15:10.345Z,881.03
2019-04-23T15:25:30.290Z,999.90
2019-04-23T15:27:08.535Z,891.47
2019-04-23T15:30:17.561Z,555.33
2019-04-23T15:35:55.755Z,936.17
2019-04-23T15:40:34.145Z,740.53
2019-04-23T15:50:51.712Z,989.40
2019-04-23T15:55:51.691Z,999.90
2019-04-23T16:06:02.912Z,999.90
2019-04-23T16:16:45.395Z,999.90
2019-04-23T16:21:58.429Z,999.90
2019-04-23T16:26:58.011Z,269.50
2019-04-23T16:32:04.051Z,164.43
2019-04-23T16:42:11.546Z,999.90
2019-04-23T16:52:24.508Z,730.73
2019-04-23T16:57:33.259Z,999.90
2019-04-23T17:02:40.555Z,999.90
2019-04-23T17:07:36.284Z,606.83
2019-04-23T17:12:46.289Z,436.43
2019-04-23T17:17:45.145Z,867.93
2019-04-23T17:23:00.152Z,452.40
2019-04-23T17:28:05.602Z,826.37
2019-04-23T17:33:27.225Z,999.90
2019-04-23T17:38:24.864Z,999.90
2019-04-23T17:43:26.887Z,999.90
2019-04-23T17:48:32.825Z,999.90
2019-04-23T17:53:42.508Z,266.33
2019-04-23T17:58:43.983Z,339.80
2019-04-23T18:09:00.509Z,467.60
2019-04-23T18:14:02.324Z,335.40
2019-04-23T18:19:10.329Z,802.47
2019-04-23T18:24:23.399Z,174.67
2019-04-23T18:34:48.930Z,686.33
2019-04-23T18:44:48.491Z,999.90
2019-04-23T18:49:56.872Z,999.90
2019-04-23T18:55:04.079Z,999.90
2019-04-23T19:00:16.805Z,999.90
2019-04-23T19:05:34.522Z,999.90
2019-04-23T19:10:31.700Z,912.83
2019-04-23T19:15:37.930Z,801.20
2019-04-23T19:25:46.823Z,963.97
2019-04-23T19:31:07.359Z,967.40
2019-04-23T19:36:19.048Z,936.23
2019-04-23T19:41:23.571Z,962.33
2019-04-23T19:46:44.999Z,973.60
2019-04-23T19:51:33.797Z,968.77
2019-04-23T19:56:46.254Z,946.90
2019-04-23T20:01:47.212Z,999.60
2019-04-23T20:11:54.963Z,986.40
2019-04-23T20:17:23.259Z,956.97
2019-04-23T20:27:18.045Z,921.90
2019-04-23T20:31:33.487Z,918.63
2019-04-23T20:42:34.739Z,991.17
2019-04-23T20:47:48.653Z,999.90
2019-04-23T20:52:46.543Z,999.90
2019-04-23T20:58:02.238Z,999.90
2019-04-23T21:03:31.185Z,999.90
2019-04-23T21:08:30.892Z,999.90
2019-04-23T21:13:50.645Z,999.90
2019-04-23T21:18:37.881Z,999.90
2019-04-23T21:23:45.771Z,999.90
2019-04-23T21:28:58.680Z,999.90
2019-04-23T21:34:05.095Z,885.77
2019-04-23T21:39:18.878Z,853.23
2019-04-23T21:44:28.891Z,925.87
2019-04-23T21:49:40.765Z,984.47
2019-04-23T21:54:29.254Z,918.80
2019-04-23T21:59:39.591Z,942.97
2019-04-23T22:04:44.845Z,917.33
2019-04-23T22:20:03.969Z,995.50
2019-04-23T22:24:59.169Z,896.90
2019-04-23T22:30:02.908Z,999.90
2019-04-23T22:35:16.370Z,957.67
2019-04-23T22:40:18.152Z,904.93
2019-04-23T22:45:26.842Z,920.90
2019-04-23T22:55:40.533Z,984.27
2019-04-23T23:00:55.627Z,782.23
2019-04-23T23:06:11.016Z,885.83
2019-04-23T23:11:02.332Z,888.00
2019-04-23T23:16:12.600Z,913.33
2019-04-23T23:21:12.092Z,986.53
2019-04-23T23:26:26.765Z,827.03
2019-04-23T23:31:30.157Z,895.53
2019-04-23T23:41:42.958Z,857.20
2019-04-23T23:51:54.069Z,700.43
